Time;durP1;ratioP1;P1;durP2;ratioP2;P2;SDS_P1;SDS_P2;PMS_P1;PMS_P2;Temp;Humidity;BMP_temperature;BMP_pressure;BME280_temperature;BME280_humidity;BME280_pressure;Samples;Min_cycle;Max_cycle;Signal;HPM_P1;HPM_P2
2021/10/27 00:09:41;;;;;;;2.27;1.53;;;14.60;99.90;;;;;;20350370;29;20225;-67
2021/10/27 00:19:47;;;;;;;0.47;0.47;;;14.60;99.90;;;;;;20361380;29;20206;-68
2021/10/27 00:29:50;;;;;;;0.50;0.30;;;14.60;99.90;;;;;;20361549;29;20316;-67
2021/10/27 00:39:56;;;;;;;1.03;0.73;;;14.60;99.90;;;;;;20360028;29;20194;-67
2021/10/27 00:49:59;;;;;;;1.80;1.03;;;14.40;99.90;;;;;;20361469;29;20646;-67
2021/10/27 01:00:06;;;;;;;0.70;0.67;;;14.50;99.90;;;;;;20361487;29;20225;-67
2021/10/27 01:10:10;;;;;;;2.67;0.70;;;14.50;99.90;;;;;;20360973;29;20234;-67
2021/10/27 01:20:18;;;;;;;1.33;1.03;;;14.70;99.90;;;;;;20354432;29;20201;-67
2021/10/27 01:30:23;;;;;;;1.33;1.23;;;14.60;99.90;;;;;;20347770;29;20237;-67
2021/10/27 01:40:29;;;;;;;0.30;0.30;;;14.60;99.90;;;;;;20347249;29;20214;-66
2021/10/27 01:50:34;;;;;;;0.60;0.60;;;14.60;99.90;;;;;;20345971;29;20261;-66
2021/10/27 02:00:49;;;;;;;5.10;0.93;;;14.50;99.90;;;;;;20344273;23;20614;-75
2021/10/27 02:10:52;;;;;;;0.63;0.63;;;14.40;99.90;;;;;;20264243;29;20278;-75
2021/10/27 02:20:57;;;;;;;1.20;1.10;;;14.50;99.90;;;;;;20264685;29;20211;-74
2021/10/27 02:31:01;;;;;;;0.63;0.63;;;14.70;99.90;;;;;;20264037;29;20238;-75
2021/10/27 02:41:06;;;;;;;1.40;1.23;;;14.90;99.90;;;;;;20263576;29;20199;-75
2021/10/27 02:51:10;;;;;;;1.53;1.43;;;14.80;99.90;;;;;;20266492;29;20253;-74
2021/10/27 03:01:16;;;;;;;0.63;0.63;;;14.70;99.90;;;;;;20273895;23;20242;-66
2021/10/27 03:11:20;;;;;;;0.37;0.37;;;14.50;99.90;;;;;;20260082;29;20230;-68
2021/10/27 03:21:25;;;;;;;0.57;0.57;;;14.50;99.90;;;;;;20261467;29;20242;-67
2021/10/27 03:31:29;;;;;;;2.50;2.30;;;14.30;99.90;;;;;;20260916;29;20237;-66
2021/10/27 03:41:34;;;;;;;1.57;1.47;;;14.30;99.90;;;;;;20258444;29;20206;-67
2021/10/27 03:51:48;;;;;;;0.90;0.53;;;14.40;99.90;;;;;;20268925;29;20699;-67
2021/10/27 04:01:53;;;;;;;0.20;0.20;;;14.30;99.90;;;;;;20324401;23;20258;-77
2021/10/27 04:11:57;;;;;;;1.87;0.90;;;14.20;99.90;;;;;;20257584;29;20333;-76
2021/10/27 04:22:02;;;;;;;2.90;0.83;;;14.30;99.90;;;;;;20258657;29;20231;-77
2021/10/27 04:32:06;;;;;;;0.40;0.40;;;14.20;99.90;;;;;;20256135;29;20227;-76
2021/10/27 04:42:12;;;;;;;20.37;0.97;;;14.10;99.90;;;;;;20255618;29;20631;-75
2021/10/27 04:52:15;;;;;;;0.80;0.60;;;14.10;99.90;;;;;;20270391;29;20218;-75
2021/10/27 05:02:20;;;;;;;0.70;0.53;;;14.00;99.90;;;;;;20350079;29;20688;-77
2021/10/27 05:12:24;;;;;;;0.70;0.50;;;14.10;99.90;;;;;;20349246;29;20233;-75
2021/10/27 05:22:29;;;;;;;1.07;0.97;;;14.00;99.90;;;;;;20348162;29;20274;-76
2021/10/27 05:32:33;;;;;;;1.47;1.10;;;14.00;99.90;;;;;;20348144;29;20229;-75
2021/10/27 05:42:39;;;;;;;0.83;0.83;;;13.90;99.90;;;;;;20346137;29;20565;-75
2021/10/27 06:03:06;;;;;;;1.97;1.07;;;13.70;99.90;;;;;;20346302;29;20238;-76
2021/10/27 06:13:13;;;;;;;0.37;0.37;;;13.70;99.90;;;;;;20353491;29;20707;-75
2021/10/27 06:23:18;;;;;;;0.20;0.20;;;13.70;99.90;;;;;;20374670;29;20232;-78
2021/10/27 06:33:32;;;;;;;0.33;0.30;;;13.70;99.90;;;;;;20368275;29;20238;-77
2021/10/27 06:54:01;;;;;;;6.23;1.83;;;14.10;99.90;;;;;;20323690;29;20232;-73
2021/10/27 07:04:29;;;;;;;0.27;0.20;;;14.50;99.90;;;;;;20341649;29;20234;-75
2021/10/27 07:25:00;;;;;;;0.50;0.50;;;14.70;99.90;;;;;;20182142;29;20545;-74
2021/10/27 07:35:14;;;;;;;4.73;1.03;;;14.80;99.90;;;;;;20184123;29;20234;-74
2021/10/27 07:45:23;;;;;;;0.20;0.20;;;14.90;99.90;;;;;;20184773;29;20629;-76
2021/10/27 07:55:28;;;;;;;0.20;0.10;;;15.20;99.90;;;;;;20258954;29;20253;-75
2021/10/27 08:05:38;;;;;;;0.30;0.30;;;15.40;99.90;;;;;;20334924;29;20264;-75
2021/10/27 08:15:42;;;;;;;0.30;0.30;;;15.70;99.90;;;;;;20335314;29;20640;-74
2021/10/27 08:25:51;;;;;;;0.30;0.30;;;16.70;99.90;;;;;;20333713;29;20310;-74
2021/10/27 08:35:55;;;;;;;0.30;0.30;;;17.20;99.90;;;;;;20348755;29;20229;-73
2021/10/27 08:46:01;;;;;;;1.37;1.27;;;17.30;99.90;;;;;;20359599;29;20209;-75
2021/10/27 08:56:06;;;;;;;0.20;0.00;;;18.20;99.90;;;;;;20294815;29;20254;-73
2021/10/27 09:06:27;;;;;;;0.20;0.20;;;18.30;99.90;;;;;;20231165;29;20708;-74
2021/10/27 09:17:02;;;;;;;3.63;0.47;;;18.40;99.90;;;;;;20239938;29;20285;-74
2021/10/27 10:09:13;;;;;;;0.20;0.10;;;20.20;99.90;;;;;;20202691;29;20330;-75
2021/10/27 10:19:18;;;;;;;0.83;0.83;;;20.50;99.90;;;;;;20233233;29;20230;-76
2021/10/27 10:29:46;;;;;;;0.37;0.37;;;21.10;99.90;;;;;;20264500;29;20198;-75
2021/10/27 10:39:53;;;;;;;0.20;0.10;;;21.40;99.90;;;;;;20260498;29;20203;-75
2021/10/27 11:41:54;;;;;;;0.50;0.45;;;22.70;99.90;;;;;;20315740;29;20212;-76
2021/10/27 11:51:59;;;;;;;0.20;0.00;;;23.60;99.90;;;;;;20330890;29;20222;-76
2021/10/27 12:02:02;;;;;;;0.28;0.28;;;23.50;99.90;;;;;;20342112;29;20274;-76
2021/10/27 12:12:32;;;;;;;0.30;0.13;;;23.30;99.90;;;;;;20335725;29;20675;-73
2021/10/27 12:22:38;;;;;;;0.20;0.10;;;23.40;99.90;;;;;;20334790;29;20214;-74
2021/10/27 12:32:52;;;;;;;0.20;0.00;;;22.80;99.90;;;;;;20329406;29;20664;-76
2021/10/27 12:43:00;;;;;;;0.20;0.10;;;23.40;99.90;;;;;;20329916;29;20671;-74
2021/10/27 12:53:07;;;;;;;0.20;0.10;;;23.40;99.90;;;;;;20327382;29;20312;-77
2021/10/27 13:13:55;;;;;;;0.20;0.10;;;23.20;99.90;;;;;;20333780;29;20277;-74
2021/10/27 13:34:18;;;;;;;0.25;0.20;;;22.70;99.90;;;;;;20325399;29;20268;-73
2021/10/27 13:44:25;;;;;;;0.32;0.20;;;24.40;99.90;;;;;;20345676;29;20609;-73
2021/10/27 14:15:34;;;;;;;0.20;0.00;;;24.30;99.90;;;;;;20299651;29;20238;-73
2021/10/27 15:28:17;;;;;;;3.07;1.07;;;21.60;99.90;;;;;;20265203;29;20271;-73
2021/10/27 15:59:08;;;;;;;0.30;0.30;;;20.60;99.90;;;;;;20304289;29;20233;-74
2021/10/27 16:09:12;;;;;;;0.77;0.77;;;20.30;99.90;;;;;;20330321;29;20221;-75
2021/10/27 16:19:17;;;;;;;0.30;0.17;;;19.90;99.90;;;;;;20332967;29;20240;-74
2021/10/27 16:29:41;;;;;;;0.30;0.30;;;19.70;99.90;;;;;;20332984;29;20230;-73
2021/10/27 16:39:46;;;;;;;0.80;0.60;;;19.30;99.90;;;;;;20331681;29;20266;-73
2021/10/27 16:49:51;;;;;;;0.20;0.20;;;18.90;99.90;;;;;;20341319;29;20668;-73
2021/10/27 16:59:56;;;;;;;1.63;0.50;;;18.80;99.90;;;;;;20350453;29;20238;-73
2021/10/27 17:10:00;;;;;;;0.47;0.47;;;18.70;99.90;;;;;;20346080;29;20548;-71
2021/10/27 17:20:07;;;;;;;0.20;0.10;;;18.40;99.90;;;;;;20321661;29;20380;-71
2021/10/27 17:30:13;;;;;;;0.20;0.17;;;18.30;99.90;;;;;;20245066;29;20202;-72
2021/10/27 17:40:25;;;;;;;0.97;0.87;;;18.10;99.90;;;;;;20221946;29;20266;-72
2021/10/27 17:50:50;;;;;;;0.30;0.30;;;18.00;99.90;;;;;;20211472;29;20641;-72
2021/10/27 18:00:57;;;;;;;1.23;0.80;;;17.90;99.90;;;;;;20226995;29;20243;-71
2021/10/27 18:11:04;;;;;;;0.30;0.30;;;17.70;99.90;;;;;;20219943;29;20226;-72
2021/10/27 18:21:17;;;;;;;3.80;1.17;;;17.30;99.90;;;;;;20226115;29;20222;-71
2021/10/27 18:41:52;;;;;;;4.13;0.40;;;16.70;99.90;;;;;;20183353;29;20199;-71
2021/10/27 18:52:06;;;;;;;0.37;0.37;;;16.60;99.90;;;;;;20204358;29;20222;-72
2021/10/27 19:02:15;;;;;;;5.50;1.20;;;16.50;99.90;;;;;;20360985;29;20229;-72
2021/10/27 19:12:21;;;;;;;15.60;1.27;;;16.30;99.90;;;;;;20339604;29;20966;-72
2021/10/27 19:22:29;;;;;;;0.40;0.20;;;16.30;99.90;;;;;;20336193;29;20226;-73
2021/10/27 19:32:45;;;;;;;2.33;1.70;;;16.30;99.90;;;;;;20324248;29;20258;-73
2021/10/27 20:14:14;;;;;;;0.70;0.70;;;15.30;99.90;;;;;;20313153;29;20698;-63
2021/10/27 20:55:29;;;;;;;0.37;0.33;;;14.80;99.90;;;;;;20269574;29;20242;-67
2021/10/27 21:16:04;;;;;;;6.43;0.83;;;14.70;99.90;;;;;;20233876;29;20322;-66
2021/10/27 21:26:13;;;;;;;0.20;0.20;;;14.60;99.90;;;;;;20266557;29;20210;-67
2021/10/27 21:46:44;;;;;;;2.40;0.53;;;14.60;99.90;;;;;;20308333;29;20222;-66
2021/10/27 21:56:48;;;;;;;0.60;0.50;;;14.50;99.90;;;;;;20343706;29;20225;-67
2021/10/27 22:06:53;;;;;;;0.50;0.50;;;14.50;99.90;;;;;;20342028;29;20260;-67
2021/10/27 22:16:56;;;;;;;0.30;0.30;;;14.50;99.90;;;;;;20341315;29;20316;-66
2021/10/27 22:27:01;;;;;;;0.77;0.57;;;14.30;99.90;;;;;;20340772;29;20212;-65
2021/10/27 22:37:06;;;;;;;0.20;0.10;;;14.20;99.90;;;;;;20338241;29;20689;-65
2021/10/27 22:47:12;;;;;;;0.53;0.53;;;14.30;99.90;;;;;;20338390;29;20654;-66
2021/10/27 22:57:16;;;;;;;0.20;0.10;;;14.30;99.90;;;;;;20302671;29;20235;-68
2021/10/27 23:07:24;;;;;;;0.30;0.20;;;14.10;99.90;;;;;;20258096;29;20231;-66
2021/10/27 23:48:36;;;;;;;0.40;0.30;;;14.30;99.90;;;;;;20276390;29;20194;-66
2021/10/27 23:58:52;;;;;;;6.40;1.53;;;14.10;99.90;;;;;;20308958;29;20584;-66
